Fredonia, Kansas
Current Conditions -  °F | °C
As of 3:38 PM on Saturday 22 Nov 2014 (Local Time) from KCNU Reporting Station
Scattered Clouds Scattered Clouds  
Wind Chill: 58°   Ceiling: Unl
Heat Index: 58°   Visibility: 10mi
Dew Point: 53°   Wind: 17mph
Humidity: 84%   Direction: 180°S
Pressure: 29.82"   Gusts: 24mph
Location:  37.53°N, 95.83°W
Report Text: KCNU 222138Z AUTO 18015G21KT 10SM SCT017 14/12 A2982 RMK AO2 T01440117
Loading
Personal Weather Stations






























Interactive Weather Map New forecast layout! Learn more

10-Day Weather Forecast

Advertisements
Track Severe Weather on mobile